Terminal Aerodrome Forecast
Issued by NWS Charleston, SC

Home | Current Version | Previous Version | Text Only | Print | Product List | Glossary On
Versions: 1 2 3 4 5 6 7 8 9 10 11 12 13 14 15 16 17 18 19 20
000
FTUS42 KCHS 282204 AAA
TAFSAV
TAF AMD
KSAV 282204Z 2822/0118 04011KT P6SM -RA FEW020 BKN035
     FM282230 05013G18KT 6SM -RA SCT012 BKN025
     FM010600 02012KT 6SM -SHRA BR BKN006 OVC012
     FM011500 01009KT 5SM -RADZ OVC005=

USA.gov is the U.S. government's official web portal to all federal, state and local government web resources and services.